sensor_id;sensor_type;location;lat;lon;timestamp;P1;durP1;ratioP1;P2;durP2;ratioP2
9508;SDS011;4792;50.088;8.122;2023-01-01T00:01:57;0.23;;;0.23;;
9508;SDS011;4792;50.088;8.122;2023-01-01T00:04:26;0.20;;;0.20;;
9508;SDS011;4792;50.088;8.122;2023-01-01T00:06:54;0.30;;;0.30;;
9508;SDS011;4792;50.088;8.122;2023-01-01T00:09:22;0.30;;;0.30;;
9508;SDS011;4792;50.088;8.122;2023-01-01T00:12:07;0.50;;;0.50;;
9508;SDS011;4792;50.088;8.122;2023-01-01T00:14:35;0.43;;;0.43;;
9508;SDS011;4792;50.088;8.122;2023-01-01T00:17:05;0.30;;;0.30;;
9508;SDS011;4792;50.088;8.122;2023-01-01T00:19:33;0.20;;;0.20;;
9508;SDS011;4792;50.088;8.122;2023-01-01T00:22:01;10.77;;;5.67;;
9508;SDS011;4792;50.088;8.122;2023-01-01T00:24:49;6.93;;;5.20;;
9508;SDS011;4792;50.088;8.122;2023-01-01T00:27:18;8.70;;;5.80;;
9508;SDS011;4792;50.088;8.122;2023-01-01T00:29:46;8.10;;;5.80;;
9508;SDS011;4792;50.088;8.122;2023-01-01T00:32:15;10.00;;;6.27;;
9508;SDS011;4792;50.088;8.122;2023-01-01T00:34:48;12.13;;;7.60;;
9508;SDS011;4792;50.088;8.122;2023-01-01T00:37:16;11.03;;;6.23;;
9508;SDS011;4792;50.088;8.122;2023-01-01T00:39:44;9.47;;;6.23;;
9508;SDS011;4792;50.088;8.122;2023-01-01T00:42:12;10.57;;;6.73;;
9508;SDS011;4792;50.088;8.122;2023-01-01T00:44:40;11.60;;;7.27;;
9508;SDS011;4792;50.088;8.122;2023-01-01T00:47:08;11.83;;;7.90;;
9508;SDS011;4792;50.088;8.122;2023-01-01T00:49:38;14.10;;;8.77;;
9508;SDS011;4792;50.088;8.122;2023-01-01T00:52:06;18.00;;;8.63;;
9508;SDS011;4792;50.088;8.122;2023-01-01T00:54:34;13.90;;;8.37;;
9508;SDS011;4792;50.088;8.122;2023-01-01T00:57:02;17.73;;;8.50;;
9508;SDS011;4792;50.088;8.122;2023-01-01T00:59:30;13.17;;;8.47;;
9508;SDS011;4792;50.088;8.122;2023-01-01T01:01:58;12.17;;;8.67;;
9508;SDS011;4792;50.088;8.122;2023-01-01T01:04:27;11.87;;;9.00;;
9508;SDS011;4792;50.088;8.122;2023-01-01T01:06:56;12.80;;;8.70;;
9508;SDS011;4792;50.088;8.122;2023-01-01T01:09:24;14.20;;;9.20;;
9508;SDS011;4792;50.088;8.122;2023-01-01T01:11:52;14.03;;;9.17;;
9508;SDS011;4792;50.088;8.122;2023-01-01T01:14:40;17.40;;;9.80;;
9508;SDS011;4792;50.088;8.122;2023-01-01T01:17:08;15.37;;;9.27;;
9508;SDS011;4792;50.088;8.122;2023-01-01T01:19:36;13.53;;;10.20;;
9508;SDS011;4792;50.088;8.122;2023-01-01T01:22:06;16.20;;;10.47;;
9508;SDS011;4792;50.088;8.122;2023-01-01T01:24:34;15.70;;;11.53;;
9508;SDS011;4792;50.088;8.122;2023-01-01T01:27:02;15.40;;;10.90;;
9508;SDS011;4792;50.088;8.122;2023-01-01T01:29:30;18.27;;;12.10;;
9508;SDS011;4792;50.088;8.122;2023-01-01T01:31:58;18.77;;;12.50;;
9508;SDS011;4792;50.088;8.122;2023-01-01T01:34:26;18.50;;;13.07;;
9508;SDS011;4792;50.088;8.122;2023-01-01T01:36:54;18.83;;;11.77;;
9508;SDS011;4792;50.088;8.122;2023-01-01T01:39:24;16.20;;;12.90;;
9508;SDS011;4792;50.088;8.122;2023-01-01T01:41:52;17.67;;;13.43;;
9508;SDS011;4792;50.088;8.122;2023-01-01T01:47:22;19.70;;;13.33;;
9508;SDS011;4792;50.088;8.122;2023-01-01T01:50:06;21.83;;;14.77;;
9508;SDS011;4792;50.088;8.122;2023-01-01T01:52:38;20.70;;;14.53;;
9508;SDS011;4792;50.088;8.122;2023-01-01T01:55:12;20.33;;;14.53;;
9508;SDS011;4792;50.088;8.122;2023-01-01T01:57:41;19.80;;;14.93;;
9508;SDS011;4792;50.088;8.122;2023-01-01T02:00:09;20.33;;;14.57;;
9508;SDS011;4792;50.088;8.122;2023-01-01T02:02:41;26.03;;;16.80;;
9508;SDS011;4792;50.088;8.122;2023-01-01T02:05:13;18.63;;;14.20;;
9508;SDS011;4792;50.088;8.122;2023-01-01T02:07:41;21.33;;;14.70;;
9508;SDS011;4792;50.088;8.122;2023-01-01T02:10:09;19.80;;;13.93;;
9508;SDS011;4792;50.088;8.122;2023-01-01T02:12:39;20.77;;;13.53;;
9508;SDS011;4792;50.088;8.122;2023-01-01T02:15:07;22.53;;;14.23;;
9508;SDS011;4792;50.088;8.122;2023-01-01T02:17:39;18.70;;;13.17;;
9508;SDS011;4792;50.088;8.122;2023-01-01T02:20:18;18.30;;;12.90;;
9508;SDS011;4792;50.088;8.122;2023-01-01T02:29:06;17.07;;;12.37;;
9508;SDS011;4792;50.088;8.122;2023-01-01T02:31:43;17.93;;;13.13;;
9508;SDS011;4792;50.088;8.122;2023-01-01T02:34:17;18.10;;;13.60;;
9508;SDS011;4792;50.088;8.122;2023-01-01T02:36:50;16.97;;;12.47;;
9508;SDS011;4792;50.088;8.122;2023-01-01T02:39:21;19.10;;;13.53;;
9508;SDS011;4792;50.088;8.122;2023-01-01T02:41:53;18.47;;;11.93;;
9508;SDS011;4792;50.088;8.122;2023-01-01T02:44:25;19.87;;;12.60;;
9508;SDS011;4792;50.088;8.122;2023-01-01T02:47:04;18.70;;;13.53;;
9508;SDS011;4792;50.088;8.122;2023-01-01T02:49:33;17.37;;;13.53;;
9508;SDS011;4792;50.088;8.122;2023-01-01T02:52:06;18.50;;;12.53;;
9508;SDS011;4792;50.088;8.122;2023-01-01T02:54:40;16.70;;;11.60;;
9508;SDS011;4792;50.088;8.122;2023-01-01T02:57:18;15.57;;;11.77;;
9508;SDS011;4792;50.088;8.122;2023-01-01T03:00:01;13.83;;;9.77;;
9508;SDS011;4792;50.088;8.122;2023-01-01T03:02:52;14.07;;;9.73;;
9508;SDS011;4792;50.088;8.122;2023-01-01T03:05:37;13.63;;;10.27;;
9508;SDS011;4792;50.088;8.122;2023-01-01T03:08:24;16.00;;;9.80;;
9508;SDS011;4792;50.088;8.122;2023-01-01T03:10:57;16.17;;;9.67;;
9508;SDS011;4792;50.088;8.122;2023-01-01T03:13:34;13.57;;;9.63;;
9508;SDS011;4792;50.088;8.122;2023-01-01T03:16:09;13.07;;;9.60;;
9508;SDS011;4792;50.088;8.122;2023-01-01T03:18:43;15.87;;;10.50;;
9508;SDS011;4792;50.088;8.122;2023-01-01T03:21:39;16.67;;;11.27;;
9508;SDS011;4792;50.088;8.122;2023-01-01T03:24:11;18.23;;;11.70;;
9508;SDS011;4792;50.088;8.122;2023-01-01T03:26:43;16.33;;;11.63;;
9508;SDS011;4792;50.088;8.122;2023-01-01T03:29:16;19.90;;;14.13;;
9508;SDS011;4792;50.088;8.122;2023-01-01T03:31:46;20.13;;;14.37;;
9508;SDS011;4792;50.088;8.122;2023-01-01T03:34:18;23.70;;;17.37;;
9508;SDS011;4792;50.088;8.122;2023-01-01T03:36:52;25.00;;;16.47;;
9508;SDS011;4792;50.088;8.122;2023-01-01T03:39:23;26.20;;;16.83;;
9508;SDS011;4792;50.088;8.122;2023-01-01T03:42:00;22.27;;;15.97;;
9508;SDS011;4792;50.088;8.122;2023-01-01T03:44:37;22.90;;;16.47;;
9508;SDS011;4792;50.088;8.122;2023-01-01T03:47:13;21.80;;;16.00;;
9508;SDS011;4792;50.088;8.122;2023-01-01T03:49:41;23.03;;;16.00;;
9508;SDS011;4792;50.088;8.122;2023-01-01T03:52:18;26.07;;;15.83;;
9508;SDS011;4792;50.088;8.122;2023-01-01T03:54:53;24.47;;;15.43;;
9508;SDS011;4792;50.088;8.122;2023-01-01T03:57:32;21.90;;;16.23;;
9508;SDS011;4792;50.088;8.122;2023-01-01T04:00:06;23.63;;;14.20;;
9508;SDS011;4792;50.088;8.122;2023-01-01T04:02:44;19.83;;;14.20;;
9508;SDS011;4792;50.088;8.122;2023-01-01T04:05:17;23.00;;;15.47;;
9508;SDS011;4792;50.088;8.122;2023-01-01T04:07:46;19.53;;;13.53;;
9508;SDS011;4792;50.088;8.122;2023-01-01T04:10:14;20.30;;;13.87;;
9508;SDS011;4792;50.088;8.122;2023-01-01T04:12:45;18.23;;;13.40;;
9508;SDS011;4792;50.088;8.122;2023-01-01T04:15:15;21.80;;;14.33;;
9508;SDS011;4792;50.088;8.122;2023-01-01T04:17:45;17.00;;;13.00;;
9508;SDS011;4792;50.088;8.122;2023-01-01T04:20:13;19.13;;;13.53;;
9508;SDS011;4792;50.088;8.122;2023-01-01T04:22:42;18.47;;;13.50;;
9508;SDS011;4792;50.088;8.122;2023-01-01T04:25:10;20.27;;;13.67;;
9508;SDS011;4792;50.088;8.122;2023-01-01T04:27:39;20.57;;;13.00;;
9508;SDS011;4792;50.088;8.122;2023-01-01T04:30:09;24.93;;;14.77;;
9508;SDS011;4792;50.088;8.122;2023-01-01T04:32:39;20.50;;;13.63;;
9508;SDS011;4792;50.088;8.122;2023-01-01T04:35:09;21.07;;;13.20;;
9508;SDS011;4792;50.088;8.122;2023-01-01T04:37:38;16.63;;;12.33;;
9508;SDS011;4792;50.088;8.122;2023-01-01T04:40:08;18.77;;;12.53;;
9508;SDS011;4792;50.088;8.122;2023-01-01T04:42:37;20.87;;;12.30;;
9508;SDS011;4792;50.088;8.122;2023-01-01T04:45:06;19.27;;;13.03;;
9508;SDS011;4792;50.088;8.122;2023-01-01T04:47:34;17.97;;;12.37;;
9508;SDS011;4792;50.088;8.122;2023-01-01T04:50:03;15.97;;;11.73;;
9508;SDS011;4792;50.088;8.122;2023-01-01T04:52:33;17.03;;;11.70;;
9508;SDS011;4792;50.088;8.122;2023-01-01T04:55:01;18.83;;;11.30;;
9508;SDS011;4792;50.088;8.122;2023-01-01T04:57:29;19.43;;;13.03;;
9508;SDS011;4792;50.088;8.122;2023-01-01T04:59:57;15.93;;;10.97;;
9508;SDS011;4792;50.088;8.122;2023-01-01T05:02:25;17.27;;;10.83;;
9508;SDS011;4792;50.088;8.122;2023-01-01T05:04:54;14.70;;;9.63;;
9508;SDS011;4792;50.088;8.122;2023-01-01T05:07:22;15.87;;;8.77;;
9508;SDS011;4792;50.088;8.122;2023-01-01T05:09:51;12.33;;;8.83;;
9508;SDS011;4792;50.088;8.122;2023-01-01T05:12:19;11.10;;;8.30;;
9508;SDS011;4792;50.088;8.122;2023-01-01T05:14:47;12.37;;;8.47;;
9508;SDS011;4792;50.088;8.122;2023-01-01T05:17:15;14.97;;;7.37;;
9508;SDS011;4792;50.088;8.122;2023-01-01T05:19:43;10.97;;;7.30;;
9508;SDS011;4792;50.088;8.122;2023-01-01T05:22:11;13.23;;;7.30;;
9508;SDS011;4792;50.088;8.122;2023-01-01T05:24:39;10.30;;;6.90;;
9508;SDS011;4792;50.088;8.122;2023-01-01T05:27:09;11.83;;;6.70;;
9508;SDS011;4792;50.088;8.122;2023-01-01T05:29:37;13.57;;;6.40;;
9508;SDS011;4792;50.088;8.122;2023-01-01T05:32:05;11.97;;;7.10;;
9508;SDS011;4792;50.088;8.122;2023-01-01T05:34:35;9.40;;;6.80;;
9508;SDS011;4792;50.088;8.122;2023-01-01T05:37:01;10.33;;;5.53;;
9508;SDS011;4792;50.088;8.122;2023-01-01T05:39:30;9.40;;;5.40;;
9508;SDS011;4792;50.088;8.122;2023-01-01T05:41:58;6.83;;;4.50;;
9508;SDS011;4792;50.088;8.122;2023-01-01T05:44:27;8.33;;;4.97;;
9508;SDS011;4792;50.088;8.122;2023-01-01T05:46:55;7.00;;;4.93;;
9508;SDS011;4792;50.088;8.122;2023-01-01T05:49:23;6.93;;;4.83;;
9508;SDS011;4792;50.088;8.122;2023-01-01T05:51:51;8.83;;;5.20;;
9508;SDS011;4792;50.088;8.122;2023-01-01T05:54:19;7.57;;;5.47;;
9508;SDS011;4792;50.088;8.122;2023-01-01T05:56:47;10.10;;;5.17;;
9508;SDS011;4792;50.088;8.122;2023-01-01T05:59:15;8.33;;;5.33;;
9508;SDS011;4792;50.088;8.122;2023-01-01T06:01:45;8.43;;;5.47;;
9508;SDS011;4792;50.088;8.122;2023-01-01T06:04:13;8.30;;;5.40;;
9508;SDS011;4792;50.088;8.122;2023-01-01T06:06:41;8.90;;;5.67;;
9508;SDS011;4792;50.088;8.122;2023-01-01T06:09:09;8.07;;;4.93;;
9508;SDS011;4792;50.088;8.122;2023-01-01T06:11:37;8.90;;;5.33;;
9508;SDS011;4792;50.088;8.122;2023-01-01T06:14:06;10.13;;;5.07;;
9508;SDS011;4792;50.088;8.122;2023-01-01T06:16:34;8.60;;;6.17;;
9508;SDS011;4792;50.088;8.122;2023-01-01T06:19:03;7.23;;;5.07;;
9508;SDS011;4792;50.088;8.122;2023-01-01T06:21:31;7.87;;;5.20;;
9508;SDS011;4792;50.088;8.122;2023-01-01T06:23:59;6.90;;;4.83;;
9508;SDS011;4792;50.088;8.122;2023-01-01T06:26:29;9.33;;;4.77;;
9508;SDS011;4792;50.088;8.122;2023-01-01T06:28:58;11.90;;;5.47;;
9508;SDS011;4792;50.088;8.122;2023-01-01T06:31:28;8.20;;;5.90;;
9508;SDS011;4792;50.088;8.122;2023-01-01T06:34:07;6.47;;;5.00;;
9508;SDS011;4792;50.088;8.122;2023-01-01T06:36:35;8.13;;;5.57;;
9508;SDS011;4792;50.088;8.122;2023-01-01T06:39:03;6.33;;;4.60;;
9508;SDS011;4792;50.088;8.122;2023-01-01T06:41:31;7.27;;;4.93;;
9508;SDS011;4792;50.088;8.122;2023-01-01T06:44:00;6.30;;;4.73;;
9508;SDS011;4792;50.088;8.122;2023-01-01T06:46:28;5.97;;;4.63;;
9508;SDS011;4792;50.088;8.122;2023-01-01T06:48:58;14.00;;;5.17;;
9508;SDS011;4792;50.088;8.122;2023-01-01T06:51:29;5.80;;;4.30;;
9508;SDS011;4792;50.088;8.122;2023-01-01T06:53:59;7.63;;;4.30;;
9508;SDS011;4792;50.088;8.122;2023-01-01T06:56:28;7.27;;;4.90;;
9508;SDS011;4792;50.088;8.122;2023-01-01T06:58:57;7.17;;;3.97;;
9508;SDS011;4792;50.088;8.122;2023-01-01T07:01:26;10.50;;;3.70;;
9508;SDS011;4792;50.088;8.122;2023-01-01T07:03:56;4.80;;;3.27;;
9508;SDS011;4792;50.088;8.122;2023-01-01T07:06:26;8.27;;;3.53;;
9508;SDS011;4792;50.088;8.122;2023-01-01T07:08:57;7.23;;;4.00;;
9508;SDS011;4792;50.088;8.122;2023-01-01T07:11:26;9.17;;;4.07;;
9508;SDS011;4792;50.088;8.122;2023-01-01T07:13:54;5.47;;;3.37;;
9508;SDS011;4792;50.088;8.122;2023-01-01T07:16:23;6.67;;;3.70;;
9508;SDS011;4792;50.088;8.122;2023-01-01T07:18:51;8.37;;;4.20;;
9508;SDS011;4792;50.088;8.122;2023-01-01T07:21:24;6.23;;;3.17;;
9508;SDS011;4792;50.088;8.122;2023-01-01T07:23:58;6.63;;;3.10;;
9508;SDS011;4792;50.088;8.122;2023-01-01T07:26:28;5.30;;;3.10;;
9508;SDS011;4792;50.088;8.122;2023-01-01T07:28:59;5.50;;;3.50;;
9508;SDS011;4792;50.088;8.122;2023-01-01T07:31:33;7.87;;;3.33;;
9508;SDS011;4792;50.088;8.122;2023-01-01T07:34:03;6.00;;;3.57;;
9508;SDS011;4792;50.088;8.122;2023-01-01T07:36:33;5.33;;;3.27;;
9508;SDS011;4792;50.088;8.122;2023-01-01T07:39:01;7.97;;;3.53;;
9508;SDS011;4792;50.088;8.122;2023-01-01T07:41:29;5.83;;;3.10;;
9508;SDS011;4792;50.088;8.122;2023-01-01T07:43:57;6.33;;;2.97;;
9508;SDS011;4792;50.088;8.122;2023-01-01T07:46:25;6.13;;;3.07;;
9508;SDS011;4792;50.088;8.122;2023-01-01T07:48:55;8.13;;;3.73;;
9508;SDS011;4792;50.088;8.122;2023-01-01T07:51:23;4.63;;;2.80;;
9508;SDS011;4792;50.088;8.122;2023-01-01T07:53:52;4.93;;;2.93;;
9508;SDS011;4792;50.088;8.122;2023-01-01T07:56:27;7.60;;;4.30;;
9508;SDS011;4792;50.088;8.122;2023-01-01T07:58:55;6.23;;;3.37;;
9508;SDS011;4792;50.088;8.122;2023-01-01T08:01:23;8.33;;;3.90;;
9508;SDS011;4792;50.088;8.122;2023-01-01T08:03:52;6.47;;;4.13;;
9508;SDS011;4792;50.088;8.122;2023-01-01T08:06:20;5.10;;;3.07;;
9508;SDS011;4792;50.088;8.122;2023-01-01T08:08:48;5.83;;;3.17;;
9508;SDS011;4792;50.088;8.122;2023-01-01T08:11:17;6.10;;;2.97;;
9508;SDS011;4792;50.088;8.122;2023-01-01T08:13:45;4.60;;;3.00;;
9508;SDS011;4792;50.088;8.122;2023-01-01T08:16:14;7.07;;;3.03;;
9508;SDS011;4792;50.088;8.122;2023-01-01T08:18:42;9.00;;;3.63;;
9508;SDS011;4792;50.088;8.122;2023-01-01T08:21:10;6.97;;;3.30;;
9508;SDS011;4792;50.088;8.122;2023-01-01T08:23:38;4.73;;;2.77;;
9508;SDS011;4792;50.088;8.122;2023-01-01T08:26:06;6.30;;;3.10;;
9508;SDS011;4792;50.088;8.122;2023-01-01T08:28:41;8.50;;;3.60;;
9508;SDS011;4792;50.088;8.122;2023-01-01T08:31:10;10.33;;;3.83;;
9508;SDS011;4792;50.088;8.122;2023-01-01T08:33:38;9.43;;;3.80;;
9508;SDS011;4792;50.088;8.122;2023-01-01T08:36:07;7.83;;;4.20;;
9508;SDS011;4792;50.088;8.122;2023-01-01T08:38:37;8.43;;;3.63;;
9508;SDS011;4792;50.088;8.122;2023-01-01T08:41:05;8.27;;;3.60;;
9508;SDS011;4792;50.088;8.122;2023-01-01T08:43:33;8.70;;;3.73;;
9508;SDS011;4792;50.088;8.122;2023-01-01T08:46:03;8.33;;;3.60;;
9508;SDS011;4792;50.088;8.122;2023-01-01T08:48:31;7.70;;;3.43;;
9508;SDS011;4792;50.088;8.122;2023-01-01T08:50:59;5.00;;;3.23;;
9508;SDS011;4792;50.088;8.122;2023-01-01T08:53:28;10.07;;;3.87;;
9508;SDS011;4792;50.088;8.122;2023-01-01T08:55:57;5.53;;;3.10;;
9508;SDS011;4792;50.088;8.122;2023-01-01T08:58:26;8.47;;;3.50;;
9508;SDS011;4792;50.088;8.122;2023-01-01T09:00:54;6.30;;;3.57;;
9508;SDS011;4792;50.088;8.122;2023-01-01T09:03:24;4.47;;;3.37;;
9508;SDS011;4792;50.088;8.122;2023-01-01T09:05:53;10.20;;;3.60;;
9508;SDS011;4792;50.088;8.122;2023-01-01T09:08:21;5.90;;;3.53;;
9508;SDS011;4792;50.088;8.122;2023-01-01T09:10:50;6.17;;;3.40;;
9508;SDS011;4792;50.088;8.122;2023-01-01T09:13:19;8.43;;;3.87;;
9508;SDS011;4792;50.088;8.122;2023-01-01T09:15:48;9.00;;;3.53;;
9508;SDS011;4792;50.088;8.122;2023-01-01T09:18:16;6.00;;;3.10;;
9508;SDS011;4792;50.088;8.122;2023-01-01T09:20:45;6.40;;;3.63;;
9508;SDS011;4792;50.088;8.122;2023-01-01T09:23:14;9.17;;;3.83;;
9508;SDS011;4792;50.088;8.122;2023-01-01T09:25:43;8.80;;;4.40;;
9508;SDS011;4792;50.088;8.122;2023-01-01T09:28:11;6.60;;;3.97;;
9508;SDS011;4792;50.088;8.122;2023-01-01T09:30:43;9.07;;;3.90;;
9508;SDS011;4792;50.088;8.122;2023-01-01T09:33:11;5.77;;;3.67;;
9508;SDS011;4792;50.088;8.122;2023-01-01T09:35:39;5.80;;;3.60;;
9508;SDS011;4792;50.088;8.122;2023-01-01T09:38:11;5.93;;;3.43;;
9508;SDS011;4792;50.088;8.122;2023-01-01T09:40:43;6.43;;;3.10;;
9508;SDS011;4792;50.088;8.122;2023-01-01T09:43:20;6.30;;;3.73;;
9508;SDS011;4792;50.088;8.122;2023-01-01T09:45:59;6.97;;;3.50;;
9508;SDS011;4792;50.088;8.122;2023-01-01T09:48:30;9.33;;;5.30;;
9508;SDS011;4792;50.088;8.122;2023-01-01T09:50:59;11.00;;;5.90;;
9508;SDS011;4792;50.088;8.122;2023-01-01T09:53:31;8.77;;;5.33;;
9508;SDS011;4792;50.088;8.122;2023-01-01T09:56:04;10.03;;;4.57;;
9508;SDS011;4792;50.088;8.122;2023-01-01T09:58:37;10.80;;;4.27;;
9508;SDS011;4792;50.088;8.122;2023-01-01T10:01:08;11.90;;;3.93;;
9508;SDS011;4792;50.088;8.122;2023-01-01T10:03:48;6.37;;;3.77;;
9508;SDS011;4792;50.088;8.122;2023-01-01T10:06:21;8.23;;;3.90;;
9508;SDS011;4792;50.088;8.122;2023-01-01T10:08:58;10.20;;;3.60;;
9508;SDS011;4792;50.088;8.122;2023-01-01T10:11:36;7.67;;;4.10;;
9508;SDS011;4792;50.088;8.122;2023-01-01T10:14:14;8.73;;;4.07;;
9508;SDS011;4792;50.088;8.122;2023-01-01T10:16:45;7.40;;;4.10;;
9508;SDS011;4792;50.088;8.122;2023-01-01T10:19:19;9.03;;;4.30;;
9508;SDS011;4792;50.088;8.122;2023-01-01T10:21:53;4.57;;;3.40;;
9508;SDS011;4792;50.088;8.122;2023-01-01T10:24:30;7.00;;;4.10;;
9508;SDS011;4792;50.088;8.122;2023-01-01T10:27:11;5.83;;;3.67;;
9508;SDS011;4792;50.088;8.122;2023-01-01T10:29:49;6.07;;;4.30;;
9508;SDS011;4792;50.088;8.122;2023-01-01T10:32:26;9.10;;;4.10;;
9508;SDS011;4792;50.088;8.122;2023-01-01T10:34:57;14.03;;;7.37;;
9508;SDS011;4792;50.088;8.122;2023-01-01T10:37:28;23.83;;;14.30;;
9508;SDS011;4792;50.088;8.122;2023-01-01T10:40:04;56.70;;;38.73;;
9508;SDS011;4792;50.088;8.122;2023-01-01T10:42:39;10.27;;;5.50;;
9508;SDS011;4792;50.088;8.122;2023-01-01T10:45:10;7.90;;;4.30;;
9508;SDS011;4792;50.088;8.122;2023-01-01T10:47:55;7.80;;;3.50;;
9508;SDS011;4792;50.088;8.122;2023-01-01T10:50:41;6.73;;;3.43;;
9508;SDS011;4792;50.088;8.122;2023-01-01T10:53:25;4.97;;;3.17;;
9508;SDS011;4792;50.088;8.122;2023-01-01T10:56:01;7.63;;;3.57;;
9508;SDS011;4792;50.088;8.122;2023-01-01T10:58:35;10.77;;;3.50;;
9508;SDS011;4792;50.088;8.122;2023-01-01T11:01:06;8.57;;;3.47;;
9508;SDS011;4792;50.088;8.122;2023-01-01T11:03:35;7.10;;;3.00;;
9508;SDS011;4792;50.088;8.122;2023-01-01T11:06:08;9.07;;;3.50;;
9508;SDS011;4792;50.088;8.122;2023-01-01T11:08:45;8.13;;;3.53;;
9508;SDS011;4792;50.088;8.122;2023-01-01T11:11:20;5.60;;;3.30;;
9508;SDS011;4792;50.088;8.122;2023-01-01T11:13:52;10.20;;;3.80;;
9508;SDS011;4792;50.088;8.122;2023-01-01T11:16:23;7.60;;;3.77;;
9508;SDS011;4792;50.088;8.122;2023-01-01T11:18:58;9.03;;;5.27;;
9508;SDS011;4792;50.088;8.122;2023-01-01T11:21:28;11.13;;;4.80;;
9508;SDS011;4792;50.088;8.122;2023-01-01T11:24:09;8.10;;;3.53;;
9508;SDS011;4792;50.088;8.122;2023-01-01T11:26:45;10.70;;;7.17;;
9508;SDS011;4792;50.088;8.122;2023-01-01T11:29:22;11.30;;;5.13;;
9508;SDS011;4792;50.088;8.122;2023-01-01T11:31:52;7.60;;;3.73;;
9508;SDS011;4792;50.088;8.122;2023-01-01T11:34:29;15.83;;;6.50;;
9508;SDS011;4792;50.088;8.122;2023-01-01T11:37:13;10.80;;;4.43;;
9508;SDS011;4792;50.088;8.122;2023-01-01T11:39:46;41.57;;;22.20;;
9508;SDS011;4792;50.088;8.122;2023-01-01T11:42:17;19.90;;;10.67;;
9508;SDS011;4792;50.088;8.122;2023-01-01T11:44:49;12.17;;;4.83;;
9508;SDS011;4792;50.088;8.122;2023-01-01T11:47:24;8.10;;;3.97;;
9508;SDS011;4792;50.088;8.122;2023-01-01T11:49:56;9.30;;;4.10;;
9508;SDS011;4792;50.088;8.122;2023-01-01T11:52:34;10.67;;;4.60;;
9508;SDS011;4792;50.088;8.122;2023-01-01T11:55:09;9.10;;;3.47;;
9508;SDS011;4792;50.088;8.122;2023-01-01T11:57:49;7.80;;;4.17;;
9508;SDS011;4792;50.088;8.122;2023-01-01T12:00:23;7.90;;;3.93;;
9508;SDS011;4792;50.088;8.122;2023-01-01T12:02:53;9.70;;;4.50;;
9508;SDS011;4792;50.088;8.122;2023-01-01T12:05:27;8.57;;;3.43;;
9508;SDS011;4792;50.088;8.122;2023-01-01T12:08:07;11.63;;;3.93;;
9508;SDS011;4792;50.088;8.122;2023-01-01T12:10:40;8.80;;;3.90;;
9508;SDS011;4792;50.088;8.122;2023-01-01T12:13:16;7.20;;;3.77;;
9508;SDS011;4792;50.088;8.122;2023-01-01T12:15:46;7.43;;;3.70;;
9508;SDS011;4792;50.088;8.122;2023-01-01T12:18:24;9.50;;;4.27;;
9508;SDS011;4792;50.088;8.122;2023-01-01T12:20:55;6.43;;;3.40;;
9508;SDS011;4792;50.088;8.122;2023-01-01T12:23:25;6.90;;;3.33;;
9508;SDS011;4792;50.088;8.122;2023-01-01T12:25:56;25.70;;;11.67;;
9508;SDS011;4792;50.088;8.122;2023-01-01T12:28:33;15.97;;;4.50;;
9508;SDS011;4792;50.088;8.122;2023-01-01T12:31:11;11.17;;;5.40;;
9508;SDS011;4792;50.088;8.122;2023-01-01T12:33:50;8.13;;;3.77;;
9508;SDS011;4792;50.088;8.122;2023-01-01T12:36:31;7.93;;;3.80;;
9508;SDS011;4792;50.088;8.122;2023-01-01T12:42:15;5.90;;;3.50;;
9508;SDS011;4792;50.088;8.122;2023-01-01T12:45:03;9.00;;;4.77;;
9508;SDS011;4792;50.088;8.122;2023-01-01T12:47:46;13.00;;;4.30;;
9508;SDS011;4792;50.088;8.122;2023-01-01T12:50:31;12.33;;;5.10;;
9508;SDS011;4792;50.088;8.122;2023-01-01T12:53:11;28.60;;;19.20;;
9508;SDS011;4792;50.088;8.122;2023-01-01T12:58:49;10.00;;;3.50;;
9508;SDS011;4792;50.088;8.122;2023-01-01T13:01:24;9.10;;;3.37;;
9508;SDS011;4792;50.088;8.122;2023-01-01T13:03:59;8.83;;;3.87;;
9508;SDS011;4792;50.088;8.122;2023-01-01T13:06:30;8.07;;;2.93;;
9508;SDS011;4792;50.088;8.122;2023-01-01T13:09:04;11.97;;;5.13;;
9508;SDS011;4792;50.088;8.122;2023-01-01T13:11:37;12.30;;;4.87;;
9508;SDS011;4792;50.088;8.122;2023-01-01T13:14:10;7.03;;;3.43;;
9508;SDS011;4792;50.088;8.122;2023-01-01T13:16:40;9.70;;;3.47;;
9508;SDS011;4792;50.088;8.122;2023-01-01T13:21:59;8.20;;;4.43;;
9508;SDS011;4792;50.088;8.122;2023-01-01T13:25:00;27.97;;;15.73;;
9508;SDS011;4792;50.088;8.122;2023-01-01T13:30:44;7.27;;;3.60;;
9508;SDS011;4792;50.088;8.122;2023-01-01T13:33:19;11.57;;;4.70;;
9508;SDS011;4792;50.088;8.122;2023-01-01T13:38:58;9.23;;;3.70;;
9508;SDS011;4792;50.088;8.122;2023-01-01T13:41:27;6.47;;;3.90;;
9508;SDS011;4792;50.088;8.122;2023-01-01T13:44:10;7.90;;;3.40;;
9508;SDS011;4792;50.088;8.122;2023-01-01T13:46:47;6.50;;;3.20;;
9508;SDS011;4792;50.088;8.122;2023-01-01T13:49:33;9.80;;;3.13;;
9508;SDS011;4792;50.088;8.122;2023-01-01T13:52:26;6.33;;;3.10;;
9508;SDS011;4792;50.088;8.122;2023-01-01T13:55:27;8.47;;;3.37;;
9508;SDS011;4792;50.088;8.122;2023-01-01T13:58:12;8.83;;;3.27;;
9508;SDS011;4792;50.088;8.122;2023-01-01T14:03:51;15.03;;;4.13;;
9508;SDS011;4792;50.088;8.122;2023-01-01T14:06:25;13.13;;;5.10;;
9508;SDS011;4792;50.088;8.122;2023-01-01T14:08:59;11.27;;;4.43;;
9508;SDS011;4792;50.088;8.122;2023-01-01T14:11:29;9.30;;;3.50;;
9508;SDS011;4792;50.088;8.122;2023-01-01T14:13:57;8.87;;;3.87;;
9508;SDS011;4792;50.088;8.122;2023-01-01T14:16:26;6.63;;;3.00;;
9508;SDS011;4792;50.088;8.122;2023-01-01T14:18:56;8.33;;;3.50;;
9508;SDS011;4792;50.088;8.122;2023-01-01T14:21:31;9.87;;;4.30;;
9508;SDS011;4792;50.088;8.122;2023-01-01T14:24:00;8.37;;;4.20;;
9508;SDS011;4792;50.088;8.122;2023-01-01T14:26:31;7.53;;;3.50;;
9508;SDS011;4792;50.088;8.122;2023-01-01T14:29:04;7.23;;;3.40;;
9508;SDS011;4792;50.088;8.122;2023-01-01T14:31:35;10.33;;;3.37;;
9508;SDS011;4792;50.088;8.122;2023-01-01T14:34:13;9.83;;;4.57;;
9508;SDS011;4792;50.088;8.122;2023-01-01T14:36:49;11.53;;;4.27;;
9508;SDS011;4792;50.088;8.122;2023-01-01T14:39:23;12.47;;;3.80;;
9508;SDS011;4792;50.088;8.122;2023-01-01T14:41:53;11.83;;;7.27;;
9508;SDS011;4792;50.088;8.122;2023-01-01T14:44:26;9.97;;;3.97;;
9508;SDS011;4792;50.088;8.122;2023-01-01T14:46:59;11.63;;;4.10;;
9508;SDS011;4792;50.088;8.122;2023-01-01T14:49:28;6.07;;;3.20;;
9508;SDS011;4792;50.088;8.122;2023-01-01T14:52:01;8.50;;;3.47;;
9508;SDS011;4792;50.088;8.122;2023-01-01T14:54:34;4.33;;;3.07;;
9508;SDS011;4792;50.088;8.122;2023-01-01T14:57:08;10.00;;;3.50;;
9508;SDS011;4792;50.088;8.122;2023-01-01T14:59:44;9.97;;;4.50;;
9508;SDS011;4792;50.088;8.122;2023-01-01T15:02:14;12.07;;;4.07;;
9508;SDS011;4792;50.088;8.122;2023-01-01T15:04:44;11.43;;;3.97;;
9508;SDS011;4792;50.088;8.122;2023-01-01T15:07:19;11.83;;;5.30;;
9508;SDS011;4792;50.088;8.122;2023-01-01T15:09:49;11.37;;;5.33;;
9508;SDS011;4792;50.088;8.122;2023-01-01T15:12:19;12.97;;;6.07;;
9508;SDS011;4792;50.088;8.122;2023-01-01T15:14:48;8.93;;;3.27;;
9508;SDS011;4792;50.088;8.122;2023-01-01T15:17:18;11.33;;;4.33;;
9508;SDS011;4792;50.088;8.122;2023-01-01T15:19:59;8.53;;;3.50;;
9508;SDS011;4792;50.088;8.122;2023-01-01T15:22:30;7.53;;;3.13;;
9508;SDS011;4792;50.088;8.122;2023-01-01T15:25:00;10.63;;;3.50;;
9508;SDS011;4792;50.088;8.122;2023-01-01T15:27:29;7.50;;;3.20;;
9508;SDS011;4792;50.088;8.122;2023-01-01T15:29:59;9.13;;;4.00;;
9508;SDS011;4792;50.088;8.122;2023-01-01T15:32:35;10.33;;;3.50;;
9508;SDS011;4792;50.088;8.122;2023-01-01T15:35:05;10.47;;;3.80;;
9508;SDS011;4792;50.088;8.122;2023-01-01T15:37:46;10.03;;;3.90;;
9508;SDS011;4792;50.088;8.122;2023-01-01T15:40:29;9.40;;;4.57;;
9508;SDS011;4792;50.088;8.122;2023-01-01T15:45:50;10.17;;;3.90;;
9508;SDS011;4792;50.088;8.122;2023-01-01T15:48:22;9.40;;;4.50;;
9508;SDS011;4792;50.088;8.122;2023-01-01T15:51:03;14.03;;;4.70;;
9508;SDS011;4792;50.088;8.122;2023-01-01T15:53:45;10.73;;;4.50;;
9508;SDS011;4792;50.088;8.122;2023-01-01T15:56:21;6.63;;;3.77;;
9508;SDS011;4792;50.088;8.122;2023-01-01T15:58:52;7.63;;;3.80;;
9508;SDS011;4792;50.088;8.122;2023-01-01T16:01:33;10.73;;;3.63;;
9508;SDS011;4792;50.088;8.122;2023-01-01T16:04:06;10.20;;;3.77;;
9508;SDS011;4792;50.088;8.122;2023-01-01T16:06:41;12.40;;;3.43;;